Time;durP1;ratioP1;P1;durP2;ratioP2;P2;SDS_P1;SDS_P2;PMS_P1;PMS_P2;Temp;Humidity;BMP_temperature;BMP_pressure;BME280_temperature;BME280_humidity;BME280_pressure;Samples;Min_cycle;Max_cycle;Signal;HPM_P1;HPM_P2
2021/01/16 04:09:17;;;;;;;10.10;8.02;;;1.20;99.90;;;;;;5286146;23;20240;-71
2021/01/16 04:11:43;;;;;;;9.55;8.13;;;1.20;99.90;;;;;;5005698;28;20188;-72
2021/01/16 04:14:08;;;;;;;10.75;8.48;;;1.10;99.90;;;;;;5012081;28;20189;-72
2021/01/16 04:16:34;;;;;;;10.75;9.27;;;1.20;99.90;;;;;;5012313;28;20706;-72
2021/01/16 04:19:00;;;;;;;9.23;7.35;;;1.20;99.90;;;;;;5012040;28;20239;-72
2021/01/16 04:21:25;;;;;;;9.85;8.27;;;1.20;99.90;;;;;;5012396;28;20247;-72
2021/01/16 04:23:51;;;;;;;10.38;8.43;;;1.20;99.90;;;;;;5011801;28;20259;-72
2021/01/16 04:26:17;;;;;;;11.57;9.55;;;1.20;99.90;;;;;;5011004;28;20173;-72
2021/01/16 04:28:42;;;;;;;9.75;8.77;;;1.20;99.90;;;;;;5012083;28;20727;-72
2021/01/16 04:31:08;;;;;;;11.02;9.45;;;1.10;99.90;;;;;;5010648;28;20162;-76
2021/01/16 04:33:34;;;;;;;10.20;8.48;;;1.10;99.90;;;;;;5012110;28;20248;-76
2021/01/16 04:35:59;;;;;;;9.63;8.15;;;1.10;99.90;;;;;;4994337;28;20675;-76
2021/01/16 04:38:25;;;;;;;10.05;8.98;;;1.10;99.90;;;;;;5011660;28;20289;-76
2021/01/16 04:40:51;;;;;;;10.35;8.15;;;1.10;99.90;;;;;;4994159;28;20204;-76
2021/01/16 04:43:17;;;;;;;8.30;7.40;;;1.10;99.90;;;;;;5012013;28;20199;-76
2021/01/16 04:45:45;;;;;;;10.07;8.23;;;1.10;99.90;;;;;;5011780;28;20627;-76
2021/01/16 04:48:11;;;;;;;11.75;8.80;;;1.10;99.90;;;;;;5011794;28;20264;-76
2021/01/16 04:50:39;;;;;;;10.68;9.57;;;1.00;99.90;;;;;;5011672;28;20216;-76
2021/01/16 04:53:07;;;;;;;10.95;8.40;;;1.10;99.90;;;;;;5011664;28;20185;-76
2021/01/16 04:55:35;;;;;;;10.57;8.70;;;1.90;99.90;;;;;;4993990;28;20200;-76
2021/01/16 04:58:09;;;;;;;10.07;8.25;;;1.10;99.90;;;;;;5011901;28;20371;-76
2021/01/16 05:00:37;;;;;;;11.02;8.52;;;1.10;99.90;;;;;;4995025;28;20228;-76
2021/01/16 05:03:08;;;;;;;10.48;9.00;;;1.10;99.90;;;;;;5015421;28;20298;-76
2021/01/16 05:05:37;;;;;;;10.05;8.30;;;1.10;99.90;;;;;;5014822;28;20200;-76
2021/01/16 05:08:02;;;;;;;8.65;7.78;;;1.10;99.90;;;;;;4997184;28;20197;-77
2021/01/16 05:10:41;;;;;;;9.85;8.45;;;1.10;99.90;;;;;;4997898;28;20752;-77
2021/01/16 05:13:14;;;;;;;9.50;7.72;;;1.00;99.90;;;;;;5015882;28;20197;-76
2021/01/16 05:15:44;;;;;;;9.70;8.25;;;1.00;99.90;;;;;;5015303;28;20197;-77
2021/01/16 05:18:18;;;;;;;9.25;7.78;;;1.00;99.90;;;;;;5015005;28;20193;-76
2021/01/16 05:20:45;;;;;;;9.88;8.50;;;1.00;99.90;;;;;;4997555;28;20173;-76
2021/01/16 05:23:12;;;;;;;9.30;7.82;;;0.80;99.90;;;;;;5014712;28;20670;-76
2021/01/16 05:25:52;;;;;;;9.85;8.02;;;1.00;99.90;;;;;;4997899;28;20177;-76
2021/01/16 05:28:23;;;;;;;9.02;7.30;;;1.00;99.90;;;;;;5014844;28;20193;-77
2021/01/16 05:30:52;;;;;;;8.77;7.22;;;1.00;99.90;;;;;;5014859;28;20153;-76
2021/01/16 05:33:19;;;;;;;10.90;8.15;;;1.00;99.90;;;;;;4997289;28;20283;-76
2021/01/16 05:35:45;;;;;;;9.32;8.30;;;0.90;99.90;;;;;;5015027;28;20170;-76
2021/01/16 05:38:15;;;;;;;10.38;8.82;;;0.90;99.90;;;;;;4996804;28;20212;-77
2021/01/16 05:40:43;;;;;;;10.63;8.18;;;0.90;99.90;;;;;;4997353;28;20262;-76
2021/01/16 05:43:09;;;;;;;8.13;7.20;;;0.90;99.90;;;;;;4997087;28;20200;-76
2021/01/16 05:45:36;;;;;;;9.70;8.05;;;0.90;99.90;;;;;;5014884;28;20166;-76
2021/01/16 05:48:04;;;;;;;10.93;8.77;;;0.90;99.90;;;;;;5014680;28;20189;-76
2021/01/16 05:50:30;;;;;;;10.32;8.60;;;0.90;99.90;;;;;;4996794;28;20248;-76
2021/01/16 05:52:57;;;;;;;10.13;7.93;;;0.90;99.90;;;;;;5014487;28;20195;-77
2021/01/16 05:55:23;;;;;;;9.95;8.43;;;0.90;99.90;;;;;;4992791;28;20171;-76
2021/01/16 05:57:59;;;;;;;10.80;8.00;;;0.90;99.90;;;;;;4958251;28;20198;-76
2021/01/16 06:00:25;;;;;;;10.68;8.57;;;0.80;99.90;;;;;;4985334;28;20181;-75
2021/01/16 06:02:52;;;;;;;10.57;8.38;;;0.90;99.90;;;;;;4975594;28;20245;-76
2021/01/16 06:05:24;;;;;;;11.05;8.55;;;0.90;99.90;;;;;;4975017;28;20261;-79
2021/01/16 06:07:52;;;;;;;9.60;8.40;;;0.90;99.90;;;;;;4976845;28;20237;-80
2021/01/16 06:10:19;;;;;;;9.32;8.15;;;0.90;99.90;;;;;;4986249;28;20675;-81
2021/01/16 06:12:45;;;;;;;9.13;7.68;;;0.90;99.90;;;;;;4976607;28;20174;-82
2021/01/16 06:15:16;;;;;;;9.43;8.05;;;0.90;99.90;;;;;;4983445;28;20179;-80
2021/01/16 06:17:50;;;;;;;10.88;7.55;;;0.80;99.90;;;;;;4985208;28;20266;-81
2021/01/16 06:20:21;;;;;;;9.73;7.72;;;0.80;99.90;;;;;;4983187;28;20196;-81
2021/01/16 06:22:52;;;;;;;10.65;8.45;;;0.90;99.90;;;;;;4983742;28;20615;-82
2021/01/16 06:25:23;;;;;;;8.40;7.57;;;0.90;99.90;;;;;;4973567;28;20165;-83
2021/01/16 06:27:50;;;;;;;9.50;7.97;;;0.80;99.90;;;;;;4985244;28;20613;-81
2021/01/16 06:30:21;;;;;;;10.32;7.75;;;0.80;99.90;;;;;;4983423;28;20202;-81
2021/01/16 06:32:52;;;;;;;8.43;6.97;;;0.80;99.90;;;;;;4981852;28;20667;-76
2021/01/16 06:35:19;;;;;;;8.43;7.47;;;0.80;99.90;;;;;;4990051;28;20178;-80
2021/01/16 06:37:49;;;;;;;8.98;7.68;;;0.80;99.90;;;;;;4983828;28;20656;-80
2021/01/16 06:40:31;;;;;;;8.43;7.25;;;0.80;99.90;;;;;;4984607;28;20523;-80
2021/01/16 06:42:59;;;;;;;8.50;7.07;;;0.90;99.90;;;;;;4983168;28;20584;-80
2021/01/16 06:45:27;;;;;;;8.40;7.32;;;0.90;99.90;;;;;;4982301;28;20182;-80
2021/01/16 06:47:57;;;;;;;8.15;6.70;;;0.90;99.90;;;;;;4983376;28;20228;-80
2021/01/16 06:50:23;;;;;;;7.88;6.95;;;0.80;99.90;;;;;;4989570;28;20220;-80
2021/01/16 06:52:49;;;;;;;8.45;7.18;;;0.80;99.90;;;;;;4975848;28;20206;-80
2021/01/16 06:55:20;;;;;;;8.88;8.00;;;0.80;99.90;;;;;;4992869;28;20413;-79
2021/01/16 06:57:46;;;;;;;9.48;8.50;;;0.80;99.90;;;;;;4993254;28;20458;-76
2021/01/16 07:00:13;;;;;;;9.43;7.88;;;0.80;99.90;;;;;;4993690;28;20174;-76
2021/01/16 07:02:41;;;;;;;7.78;6.97;;;0.90;99.90;;;;;;4992252;28;20209;-77
2021/01/16 07:05:18;;;;;;;8.35;6.80;;;0.90;99.90;;;;;;4993828;28;20253;-76
2021/01/16 07:07:47;;;;;;;9.20;7.82;;;0.90;99.90;;;;;;4994459;28;20173;-77
2021/01/16 07:10:21;;;;;;;8.30;6.82;;;0.90;99.90;;;;;;4994616;28;20216;-73
2021/01/16 07:12:51;;;;;;;8.05;6.30;;;0.90;99.90;;;;;;4982812;28;20182;-73
2021/01/16 07:15:19;;;;;;;8.48;6.85;;;0.90;99.90;;;;;;4983593;28;20177;-72
2021/01/16 07:17:45;;;;;;;8.68;7.15;;;0.80;99.90;;;;;;4983924;28;20636;-73
2021/01/16 07:20:12;;;;;;;7.85;6.50;;;0.80;99.90;;;;;;4989121;28;20174;-74
2021/01/16 07:22:43;;;;;;;8.27;6.95;;;0.80;99.90;;;;;;4977750;28;20185;-72
2021/01/16 07:25:13;;;;;;;8.45;7.32;;;0.90;99.90;;;;;;4980993;28;20259;-72
2021/01/16 07:27:39;;;;;;;7.93;6.50;;;0.90;99.90;;;;;;4986319;28;20222;-73
2021/01/16 07:30:10;;;;;;;7.32;6.30;;;0.90;99.90;;;;;;4973501;28;20216;-74
2021/01/16 07:32:39;;;;;;;6.88;6.00;;;0.90;99.90;;;;;;4972834;28;20709;-73
2021/01/16 07:35:15;;;;;;;8.02;7.07;;;0.90;99.90;;;;;;4973961;28;20221;-72
2021/01/16 07:37:42;;;;;;;8.85;6.57;;;0.90;99.90;;;;;;4981663;28;20182;-73
2021/01/16 07:40:14;;;;;;;7.20;6.03;;;0.90;99.90;;;;;;4982151;28;20201;-72
2021/01/16 07:42:51;;;;;;;7.82;6.75;;;0.80;99.90;;;;;;4971239;28;20297;-71
2021/01/16 07:45:24;;;;;;;7.35;5.90;;;0.90;99.90;;;;;;4993037;28;20174;-72
2021/01/16 07:47:52;;;;;;;8.82;7.20;;;0.90;99.90;;;;;;4986510;28;20571;-73
2021/01/16 07:50:35;;;;;;;9.23;6.65;;;1.00;99.90;;;;;;4980442;28;20214;-70
2021/01/16 07:53:01;;;;;;;8.48;6.20;;;0.90;99.90;;;;;;4973181;28;20186;-72
2021/01/16 07:55:55;;;;;;;9.85;7.38;;;1.00;99.90;;;;;;4955313;28;20191;-72
2021/01/16 07:58:32;;;;;;;7.68;6.20;;;1.00;99.90;;;;;;4978468;28;20196;-71
2021/01/16 08:01:07;;;;;;;8.65;6.90;;;0.80;99.90;;;;;;4971855;28;20222;-69
2021/01/16 08:04:00;;;;;;;9.23;7.25;;;0.40;99.90;;;;;;4958264;28;20201;-68
2021/01/16 08:06:32;;;;;;;8.55;6.95;;;0.90;99.90;;;;;;4975575;28;20229;-69
2021/01/16 08:09:06;;;;;;;9.00;7.45;;;0.90;99.90;;;;;;4981901;28;20308;-68
2021/01/16 08:11:36;;;;;;;7.20;5.88;;;0.90;99.90;;;;;;4983520;28;20679;-71
2021/01/16 08:14:05;;;;;;;8.50;6.80;;;0.90;99.90;;;;;;4974055;28;20228;-71
2021/01/16 08:16:31;;;;;;;7.53;6.57;;;0.90;99.90;;;;;;4978602;28;20174;-68
2021/01/16 08:19:24;;;;;;;9.75;7.00;;;0.90;99.90;;;;;;4981805;28;20201;-70
2021/01/16 08:21:59;;;;;;;8.23;6.28;;;0.90;99.90;;;;;;4981390;28;20254;-73
2021/01/16 08:24:30;;;;;;;9.55;6.78;;;0.90;99.90;;;;;;4975139;28;20213;-69
2021/01/16 08:26:58;;;;;;;8.65;7.75;;;0.90;99.90;;;;;;4977937;28;20432;-70
2021/01/16 08:29:24;;;;;;;8.77;7.30;;;0.90;99.90;;;;;;4972537;28;20248;-70
2021/01/16 08:32:02;;;;;;;8.80;7.13;;;0.90;99.90;;;;;;4983162;28;20177;-69
2021/01/16 08:35:04;;;;;;;8.15;6.78;;;0.90;99.90;;;;;;4986265;28;20281;-69
2021/01/16 08:37:39;;;;;;;8.70;7.00;;;0.90;99.90;;;;;;4985819;28;20261;-69
2021/01/16 08:40:09;;;;;;;8.45;7.15;;;1.00;99.90;;;;;;4972683;28;20562;-70
2021/01/16 08:42:49;;;;;;;8.48;7.30;;;1.00;99.90;;;;;;4985062;28;20200;-71
2021/01/16 08:45:16;;;;;;;9.38;7.10;;;1.00;99.90;;;;;;4983624;28;20581;-70
2021/01/16 08:47:53;;;;;;;8.73;7.05;;;1.00;99.90;;;;;;4978846;28;20177;-69
2021/01/16 08:50:19;;;;;;;8.68;7.15;;;0.90;99.90;;;;;;4993781;28;20290;-70
2021/01/16 08:52:46;;;;;;;8.80;7.45;;;1.00;99.90;;;;;;4989483;28;20188;-68
2021/01/16 08:55:12;;;;;;;9.18;8.15;;;0.90;99.90;;;;;;4969735;28;20180;-70
2021/01/16 08:57:39;;;;;;;9.73;7.53;;;1.00;99.90;;;;;;4976157;28;20269;-71
2021/01/16 09:00:17;;;;;;;9.57;7.75;;;0.90;99.90;;;;;;4987915;28;20190;-69
2021/01/16 09:03:03;;;;;;;10.85;8.80;;;0.90;99.90;;;;;;4992160;28;20176;-72
2021/01/16 09:05:30;;;;;;;9.70;8.18;;;1.00;99.90;;;;;;4991437;28;20229;-70
2021/01/16 09:07:55;;;;;;;10.40;8.45;;;1.00;99.90;;;;;;4984074;28;20210;-70
2021/01/16 09:10:24;;;;;;;10.40;8.57;;;1.00;99.90;;;;;;4978543;28;20205;-70
2021/01/16 09:12:50;;;;;;;11.05;8.95;;;1.00;99.90;;;;;;4991407;28;20190;-72
2021/01/16 09:15:19;;;;;;;10.57;8.77;;;1.10;99.90;;;;;;4980595;28;20468;-69
2021/01/16 09:18:10;;;;;;;9.75;8.15;;;1.10;99.90;;;;;;4987055;28;20181;-69
2021/01/16 09:20:39;;;;;;;9.30;8.15;;;1.10;99.90;;;;;;4988796;28;20205;-68
2021/01/16 09:23:23;;;;;;;10.55;9.05;;;1.10;99.90;;;;;;4977088;28;20186;-78
2021/01/16 09:25:49;;;;;;;10.88;8.70;;;1.10;99.90;;;;;;4987317;28;20174;-77
2021/01/16 09:28:15;;;;;;;11.13;8.82;;;1.10;99.90;;;;;;4984698;28;20193;-75
2021/01/16 09:30:41;;;;;;;9.73;8.35;;;1.10;99.90;;;;;;4997009;28;20216;-75
2021/01/16 09:33:24;;;;;;;12.07;9.10;;;1.10;99.90;;;;;;4995799;28;20228;-78
2021/01/16 09:35:51;;;;;;;11.80;9.00;;;1.10;99.90;;;;;;4987437;28;20193;-76
2021/01/16 09:38:22;;;;;;;11.70;9.60;;;1.10;99.90;;;;;;4989265;28;20194;-76
2021/01/16 09:40:50;;;;;;;11.18;8.85;;;1.00;99.90;;;;;;4980540;28;20185;-80
2021/01/16 09:43:21;;;;;;;12.85;10.77;;;1.10;99.90;;;;;;4980419;28;20208;-78
2021/01/16 09:45:58;;;;;;;12.68;9.35;;;1.10;99.90;;;;;;4981074;28;20540;-79
2021/01/16 09:48:39;;;;;;;12.88;10.20;;;1.10;99.90;;;;;;4994903;28;20200;-76
2021/01/16 09:51:06;;;;;;;13.30;10.32;;;1.10;99.90;;;;;;4964611;28;20229;-78
2021/01/16 09:53:32;;;;;;;12.05;9.75;;;1.10;99.90;;;;;;4976929;28;20282;-77
2021/01/16 09:55:58;;;;;;;14.45;10.77;;;1.10;99.90;;;;;;4995468;28;20166;-74
2021/01/16 09:58:39;;;;;;;12.10;10.35;;;1.10;99.90;;;;;;4989479;28;20281;-76
2021/01/16 10:01:22;;;;;;;14.27;11.02;;;1.10;99.90;;;;;;4978285;28;20185;-76
2021/01/16 10:03:49;;;;;;;12.77;9.80;;;1.10;99.90;;;;;;4972338;28;20230;-76
2021/01/16 10:06:19;;;;;;;13.73;10.65;;;1.10;99.90;;;;;;4958793;28;20185;-75
2021/01/16 10:08:49;;;;;;;14.32;11.32;;;1.10;99.90;;;;;;4975214;28;20262;-75
2021/01/16 10:11:39;;;;;;;13.00;10.80;;;1.20;99.90;;;;;;4975634;28;20166;-75
2021/01/16 10:14:16;;;;;;;13.48;10.32;;;1.00;99.90;;;;;;4971113;28;20216;-75
2021/01/16 10:16:44;;;;;;;12.63;9.98;;;1.10;99.90;;;;;;4994444;28;20165;-74
2021/01/16 10:19:13;;;;;;;11.35;9.88;;;1.10;99.90;;;;;;4994539;28;20250;-75
2021/01/16 10:21:59;;;;;;;13.48;10.65;;;1.10;99.90;;;;;;4976720;28;20177;-74
2021/01/16 10:24:26;;;;;;;16.27;11.23;;;1.00;99.90;;;;;;4981001;28;20288;-76
2021/01/16 10:26:52;;;;;;;13.40;10.80;;;1.10;99.90;;;;;;4975744;28;20275;-75
2021/01/16 10:29:20;;;;;;;12.10;9.57;;;1.20;99.90;;;;;;4983358;28;20216;-74
2021/01/16 10:31:47;;;;;;;11.30;9.38;;;1.20;99.90;;;;;;4973363;28;20693;-74
2021/01/16 10:34:13;;;;;;;13.18;10.35;;;1.20;99.90;;;;;;4974487;28;20667;-75
2021/01/16 10:36:41;;;;;;;12.68;10.25;;;1.20;99.90;;;;;;4966766;28;20258;-74
2021/01/16 10:39:15;;;;;;;11.43;9.48;;;1.20;99.90;;;;;;4984726;28;20202;-74
2021/01/16 10:41:43;;;;;;;11.98;9.95;;;1.20;99.90;;;;;;4980695;28;20174;-75
2021/01/16 10:44:12;;;;;;;11.93;9.85;;;1.30;99.90;;;;;;4985452;28;20210;-75
2021/01/16 10:46:49;;;;;;;11.30;9.23;;;1.30;99.90;;;;;;4987115;28;20174;-75
2021/01/16 10:49:20;;;;;;;11.90;10.35;;;1.40;99.90;;;;;;4982594;28;20679;-71
2021/01/16 10:51:59;;;;;;;11.45;10.05;;;1.40;99.90;;;;;;4972141;28;20178;-72
2021/01/16 10:54:25;;;;;;;11.65;9.85;;;1.40;99.90;;;;;;4972685;28;20197;-74
2021/01/16 10:57:05;;;;;;;12.60;9.68;;;1.50;99.90;;;;;;4970123;28;20185;-76
2021/01/16 10:59:40;;;;;;;12.02;9.95;;;1.50;99.90;;;;;;4969905;28;20297;-77
2021/01/16 11:02:11;;;;;;;12.70;9.82;;;1.60;99.90;;;;;;4965039;28;20353;-76
2021/01/16 11:04:45;;;;;;;11.70;9.93;;;1.60;99.90;;;;;;4983397;28;20190;-73
2021/01/16 11:07:25;;;;;;;10.75;9.35;;;1.60;99.90;;;;;;4981341;28;20174;-74
2021/01/16 11:10:03;;;;;;;13.35;10.05;;;1.60;99.90;;;;;;4971164;28;20572;-74
2021/01/16 11:12:29;;;;;;;10.27;9.00;;;1.60;99.90;;;;;;4972352;28;20173;-74
2021/01/16 11:14:55;;;;;;;12.77;9.20;;;1.60;99.90;;;;;;4970201;28;20716;-74
2021/01/16 11:17:52;;;;;;;11.05;9.30;;;1.60;99.90;;;;;;4982222;28;20178;-74
2021/01/16 11:20:32;;;;;;;11.48;9.52;;;1.60;99.90;;;;;;4982185;28;20175;-74
2021/01/16 11:23:04;;;;;;;12.68;9.30;;;1.60;99.90;;;;;;4969219;28;20208;-75
2021/01/16 11:25:44;;;;;;;9.88;8.02;;;1.50;99.90;;;;;;4982761;28;20209;-74
2021/01/16 11:28:12;;;;;;;11.07;9.27;;;1.50;99.90;;;;;;4985625;28;20228;-74
2021/01/16 11:30:41;;;;;;;10.38;8.70;;;1.50;99.90;;;;;;4982196;28;20683;-78
2021/01/16 11:33:17;;;;;;;9.02;7.80;;;1.50;99.90;;;;;;4992906;28;20281;-79
2021/01/16 11:35:43;;;;;;;10.13;8.68;;;1.50;99.90;;;;;;4993265;28;20639;-78
2021/01/16 11:38:40;;;;;;;11.90;9.02;;;1.50;99.90;;;;;;4992331;28;20299;-79
2021/01/16 11:41:07;;;;;;;9.75;8.70;;;1.50;99.90;;;;;;4993324;28;20269;-78
2021/01/16 11:43:34;;;;;;;12.70;9.93;;;1.40;99.90;;;;;;4993603;28;20186;-77
2021/01/16 11:46:10;;;;;;;9.43;7.93;;;1.40;99.90;;;;;;4993625;28;20245;-77
2021/01/16 11:48:37;;;;;;;11.45;9.00;;;1.40;99.90;;;;;;4973592;28;20648;-78
2021/01/16 11:51:17;;;;;;;10.95;8.70;;;1.50;99.90;;;;;;4974624;28;20174;-78
2021/01/16 11:53:45;;;;;;;9.75;7.97;;;1.40;99.90;;;;;;4988202;28;20542;-76
2021/01/16 11:56:12;;;;;;;12.25;10.02;;;1.40;99.90;;;;;;4963670;28;20210;-75
2021/01/16 11:58:39;;;;;;;10.55;8.07;;;1.40;99.90;;;;;;4961195;28;20201;-80
2021/01/16 12:01:06;;;;;;;10.55;8.68;;;1.50;99.90;;;;;;4992445;28;20236;-76
2021/01/16 12:03:31;;;;;;;10.60;8.43;;;1.50;99.90;;;;;;4992031;28;20679;-78
2021/01/16 12:05:57;;;;;;;10.65;8.50;;;1.50;99.90;;;;;;4992447;28;20258;-75
2021/01/16 12:08:24;;;;;;;10.43;8.82;;;1.50;99.90;;;;;;4991795;28;20284;-75
2021/01/16 12:10:52;;;;;;;9.82;8.32;;;1.50;99.90;;;;;;4982746;28;20217;-75
2021/01/16 12:13:18;;;;;;;11.88;9.25;;;1.50;99.90;;;;;;4973492;28;20198;-75
2021/01/16 12:15:44;;;;;;;11.25;8.45;;;1.50;99.90;;;;;;4957406;28;20288;-74
2021/01/16 12:18:12;;;;;;;10.25;8.27;;;1.50;99.90;;;;;;4976924;28;20305;-77
2021/01/16 12:20:38;;;;;;;10.93;8.75;;;1.50;99.90;;;;;;4974562;28;20178;-78
2021/01/16 12:23:04;;;;;;;10.10;8.38;;;1.50;99.90;;;;;;4991764;28;20190;-74
2021/01/16 12:25:34;;;;;;;11.63;9.07;;;1.50;99.90;;;;;;4989485;28;20269;-75
2021/01/16 12:28:02;;;;;;;10.23;8.40;;;1.60;99.90;;;;;;4972975;28;20206;-74
2021/01/16 12:30:42;;;;;;;11.25;9.13;;;1.50;99.90;;;;;;4972779;28;20217;-75
2021/01/16 12:33:08;;;;;;;10.23;9.13;;;1.50;99.90;;;;;;4971419;28;20334;-74
2021/01/16 12:35:34;;;;;;;11.48;9.65;;;1.50;99.90;;;;;;4971368;28;20313;-74
2021/01/16 12:37:59;;;;;;;11.43;9.93;;;1.60;99.90;;;;;;4975948;28;20674;-75
2021/01/16 12:40:27;;;;;;;13.10;10.70;;;1.60;99.90;;;;;;4979855;28;20190;-74
2021/01/16 12:42:53;;;;;;;13.75;10.35;;;1.50;99.90;;;;;;4981311;28;20571;-73
2021/01/16 12:45:21;;;;;;;12.77;10.45;;;1.50;99.90;;;;;;4973575;28;20174;-74
2021/01/16 12:47:53;;;;;;;17.63;14.15;;;1.50;99.90;;;;;;4973113;28;20173;-76
2021/01/16 12:50:21;;;;;;;13.35;10.98;;;1.50;99.90;;;;;;4973883;28;20296;-75
2021/01/16 12:52:49;;;;;;;13.85;11.30;;;1.50;99.90;;;;;;4980516;28;20182;-75
2021/01/16 12:55:17;;;;;;;11.85;10.18;;;1.50;99.90;;;;;;4972381;28;20546;-74
2021/01/16 12:57:45;;;;;;;13.20;10.60;;;1.50;99.90;;;;;;4981092;28;20174;-77
2021/01/16 13:00:19;;;;;;;11.70;10.10;;;1.50;99.90;;;;;;4981875;28;20171;-76
2021/01/16 13:02:47;;;;;;;12.93;10.57;;;1.50;99.90;;;;;;4964266;28;20170;-75
2021/01/16 13:05:17;;;;;;;12.32;9.60;;;1.50;99.90;;;;;;4971249;28;20641;-74
2021/01/16 13:07:46;;;;;;;13.20;9.68;;;1.40;99.90;;;;;;4982238;28;20166;-74
2021/01/16 13:10:14;;;;;;;12.95;10.60;;;1.50;99.90;;;;;;4956162;28;20282;-75
2021/01/16 13:12:44;;;;;;;14.63;10.88;;;1.40;99.90;;;;;;4953185;29;20650;-75
2021/01/16 13:15:11;;;;;;;12.20;10.18;;;1.40;99.90;;;;;;4962450;28;20198;-76
2021/01/16 13:17:42;;;;;;;13.30;10.57;;;1.40;99.90;;;;;;4954072;28;20198;-76
2021/01/16 13:20:09;;;;;;;13.82;10.18;;;1.30;99.90;;;;;;4935730;29;20684;-75
2021/01/16 13:22:34;;;;;;;12.35;9.90;;;1.30;99.90;;;;;;4955783;28;20174;-75
2021/01/16 13:25:09;;;;;;;12.82;10.30;;;1.30;99.90;;;;;;4939449;29;20179;-76
2021/01/16 13:27:37;;;;;;;13.13;10.60;;;1.30;99.90;;;;;;4959752;28;20209;-74
2021/01/16 13:30:07;;;;;;;12.10;9.82;;;1.30;99.90;;;;;;4966069;28;20244;-74
2021/01/16 13:32:34;;;;;;;13.15;10.80;;;1.20;99.90;;;;;;4960391;28;20176;-75
2021/01/16 13:35:01;;;;;;;14.10;10.32;;;1.20;99.90;;;;;;4956716;29;20198;-75
2021/01/16 13:37:30;;;;;;;14.50;9.88;;;1.20;99.90;;;;;;4955884;29;20178;-75
2021/01/16 13:39:59;;;;;;;12.80;10.27;;;1.20;99.90;;;;;;4939133;29;20649;-75
2021/01/16 13:42:31;;;;;;;15.57;11.82;;;1.20;99.90;;;;;;4963614;28;20250;-75
2021/01/16 13:45:05;;;;;;;12.43;10.45;;;1.20;99.90;;;;;;4956693;29;20175;-75
2021/01/16 13:47:32;;;;;;;12.85;10.13;;;1.20;99.90;;;;;;4956316;29;20175;-75
2021/01/16 13:50:15;;;;;;;11.82;10.45;;;1.10;99.90;;;;;;4967463;28;20218;-75
2021/01/16 13:52:42;;;;;;;13.43;10.18;;;1.10;99.90;;;;;;4975805;28;20217;-76
2021/01/16 13:55:16;;;;;;;13.68;11.38;;;1.10;99.90;;;;;;4975412;28;20175;-76
2021/01/16 13:58:10;;;;;;;15.77;11.65;;;1.10;99.90;;;;;;4958399;28;20181;-75
2021/01/16 14:00:47;;;;;;;13.63;10.90;;;1.10;99.90;;;;;;4959266;28;20620;-76
2021/01/16 14:03:34;;;;;;;13.40;11.43;;;1.10;99.90;;;;;;4956517;29;20265;-75
2021/01/16 14:06:01;;;;;;;13.65;11.27;;;1.10;99.90;;;;;;4958775;28;20190;-74
2021/01/16 14:08:27;;;;;;;12.90;10.43;;;1.10;99.90;;;;;;4971377;28;20621;-74
2021/01/16 14:11:05;;;;;;;13.63;10.60;;;1.10;99.90;;;;;;4984088;28;20281;-76
2021/01/16 14:13:36;;;;;;;15.57;12.15;;;1.10;99.90;;;;;;4985228;28;20256;-75
2021/01/16 14:16:09;;;;;;;16.58;12.95;;;1.10;99.90;;;;;;4979956;28;20175;-75
2021/01/16 14:18:37;;;;;;;17.33;12.93;;;1.10;99.90;;;;;;4967154;28;20205;-74
2021/01/16 14:21:19;;;;;;;15.02;11.38;;;1.10;99.90;;;;;;4978961;28;20185;-75
2021/01/16 14:23:46;;;;;;;17.15;12.82;;;1.10;99.90;;;;;;4988048;28;20237;-75
2021/01/16 14:26:15;;;;;;;13.90;11.00;;;1.10;99.90;;;;;;4977199;28;20174;-76
2021/01/16 14:28:41;;;;;;;14.95;11.25;;;1.00;99.90;;;;;;4994873;28;20201;-75
2021/01/16 14:31:12;;;;;;;12.43;10.60;;;1.10;99.90;;;;;;4994642;28;20712;-74
2021/01/16 14:33:39;;;;;;;13.30;10.38;;;1.00;99.90;;;;;;4994074;28;20217;-76
2021/01/16 14:36:19;;;;;;;13.35;10.75;;;0.90;99.90;;;;;;4969424;28;20178;-76
2021/01/16 14:38:58;;;;;;;13.20;10.65;;;1.00;99.90;;;;;;4982214;28;20294;-77
2021/01/16 14:41:42;;;;;;;14.00;10.25;;;1.10;99.90;;;;;;4983461;28;20174;-75
2021/01/16 14:44:12;;;;;;;12.57;10.65;;;1.30;99.90;;;;;;4983701;28;20187;-76
2021/01/16 14:46:39;;;;;;;13.77;10.43;;;1.00;99.90;;;;;;4983207;28;20197;-79
2021/01/16 14:49:08;;;;;;;14.20;10.05;;;1.00;99.90;;;;;;4992832;28;20201;-77
2021/01/16 14:51:38;;;;;;;14.00;11.23;;;1.00;99.90;;;;;;4967310;28;20210;-77
2021/01/16 14:54:06;;;;;;;14.57;11.20;;;1.00;99.90;;;;;;4956344;28;20194;-76
2021/01/16 14:56:54;;;;;;;13.95;10.77;;;1.00;99.90;;;;;;4974059;28;20425;-76
2021/01/16 14:59:20;;;;;;;16.00;11.90;;;1.10;99.90;;;;;;4957063;28;20198;-76
2021/01/16 15:01:50;;;;;;;13.93;11.60;;;1.10;99.90;;;;;;4956926;28;20309;-77
2021/01/16 15:04:24;;;;;;;14.40;10.98;;;1.00;99.90;;;;;;4956933;28;20194;-76
2021/01/16 15:06:51;;;;;;;13.05;11.05;;;1.00;99.90;;;;;;4964018;28;20281;-76
2021/01/16 15:09:40;;;;;;;15.18;11.50;;;1.00;99.90;;;;;;4974863;28;20236;-76
2021/01/16 15:12:14;;;;;;;17.35;12.85;;;1.10;99.90;;;;;;4979416;28;20178;-74
2021/01/16 15:14:41;;;;;;;13.65;11.00;;;1.00;99.90;;;;;;4967917;28;20252;-75
2021/01/16 15:17:09;;;;;;;15.40;11.63;;;1.00;99.90;;;;;;4973667;28;20177;-75
2021/01/16 15:19:35;;;;;;;13.55;10.40;;;1.10;99.90;;;;;;4993385;28;20336;-76
2021/01/16 15:22:06;;;;;;;13.90;10.85;;;1.10;99.90;;;;;;4974984;28;20197;-76
2021/01/16 15:24:33;;;;;;;15.50;11.75;;;1.10;99.90;;;;;;4974997;28;20198;-76
2021/01/16 15:27:01;;;;;;;13.93;11.35;;;1.00;99.90;;;;;;4984356;28;20170;-74
2021/01/16 15:29:27;;;;;;;13.20;10.35;;;1.00;99.90;;;;;;4979290;28;20627;-77
2021/01/16 15:31:53;;;;;;;12.73;10.60;;;1.00;99.90;;;;;;4974422;28;20174;-76
2021/01/16 15:34:38;;;;;;;14.95;13.27;;;1.10;99.90;;;;;;4978836;28;20462;-76
2021/01/16 15:37:05;;;;;;;15.10;12.05;;;1.00;99.90;;;;;;4983468;28;20167;-75
2021/01/16 15:39:40;;;;;;;15.85;12.40;;;1.00;99.90;;;;;;4985379;28;20276;-76
2021/01/16 15:42:18;;;;;;;14.88;10.77;;;1.00;99.90;;;;;;4993167;28;20176;-76
2021/01/16 15:44:44;;;;;;;15.00;11.13;;;0.90;99.90;;;;;;4983408;28;20194;-77
2021/01/16 15:47:11;;;;;;;15.32;10.77;;;1.10;99.90;;;;;;4962097;28;20185;-76
2021/01/16 15:49:38;;;;;;;16.65;12.13;;;0.90;99.90;;;;;;4982924;28;20395;-81
2021/01/16 15:52:03;;;;;;;16.77;12.18;;;0.90;99.90;;;;;;4983086;28;20522;-80
2021/01/16 15:54:29;;;;;;;16.08;11.90;;;0.90;99.90;;;;;;4986851;28;20332;-79
2021/01/16 15:56:55;;;;;;;15.77;12.15;;;0.90;99.90;;;;;;4969343;28;20174;-78
2021/01/16 15:59:21;;;;;;;14.50;12.10;;;0.90;99.90;;;;;;4982667;28;20272;-80
2021/01/16 16:01:46;;;;;;;16.17;12.20;;;0.90;99.90;;;;;;4990052;28;20177;-79
2021/01/16 16:04:17;;;;;;;15.48;12.13;;;0.90;99.90;;;;;;4961276;28;20197;-79
2021/01/16 16:06:44;;;;;;;15.60;12.07;;;0.80;99.90;;;;;;4981019;28;20169;-79
2021/01/16 16:09:10;;;;;;;14.75;11.88;;;0.90;99.90;;;;;;4963301;28;20591;-75
2021/01/16 16:11:38;;;;;;;15.65;12.13;;;0.90;99.90;;;;;;4983327;28;20232;-80
2021/01/16 16:14:05;;;;;;;16.45;12.90;;;0.90;99.90;;;;;;4984630;28;20252;-79
2021/01/16 16:16:31;;;;;;;22.55;17.77;;;0.90;99.90;;;;;;4972379;28;20664;-80
2021/01/16 16:18:57;;;;;;;16.10;12.85;;;0.90;99.90;;;;;;4975229;28;20225;-79
2021/01/16 16:21:23;;;;;;;14.30;12.05;;;0.80;99.90;;;;;;4964419;28;20672;-80
2021/01/16 16:23:49;;;;;;;14.32;11.05;;;0.80;99.90;;;;;;4972553;28;20194;-80
2021/01/16 16:26:15;;;;;;;15.38;12.10;;;0.80;99.90;;;;;;4992753;28;20532;-80
2021/01/16 16:28:42;;;;;;;13.98;11.98;;;0.80;99.90;;;;;;4983528;28;20206;-79
2021/01/16 16:31:09;;;;;;;14.07;11.23;;;0.90;99.90;;;;;;4981292;28;20206;-81
2021/01/16 16:33:38;;;;;;;13.15;10.73;;;0.80;99.90;;;;;;4984027;28;20198;-82
2021/01/16 16:36:05;;;;;;;15.02;11.10;;;0.80;99.90;;;;;;4973324;28;20208;-79
2021/01/16 16:38:35;;;;;;;18.08;13.90;;;0.80;99.90;;;;;;4981239;28;20222;-79
2021/01/16 16:41:01;;;;;;;17.42;13.00;;;0.90;99.90;;;;;;4964652;28;20279;-81
2021/01/16 16:43:27;;;;;;;17.42;12.98;;;0.80;99.90;;;;;;4980977;28;20237;-79
2021/01/16 16:45:53;;;;;;;16.08;12.52;;;1.00;99.90;;;;;;4981868;28;20201;-78
2021/01/16 16:48:18;;;;;;;17.27;12.27;;;0.80;99.90;;;;;;4972529;28;20186;-78
2021/01/16 16:50:45;;;;;;;17.27;12.30;;;0.90;99.90;;;;;;4980959;28;20232;-78
2021/01/16 16:53:12;;;;;;;17.83;12.07;;;0.90;99.90;;;;;;4982431;28;20285;-77
2021/01/16 16:55:38;;;;;;;17.75;13.90;;;0.80;99.90;;;;;;4981009;28;20222;-79
2021/01/16 16:58:10;;;;;;;17.65;13.38;;;0.90;99.90;;;;;;4984351;28;20189;-77
2021/01/16 17:00:37;;;;;;;20.02;13.98;;;1.00;99.90;;;;;;4984729;28;20174;-78
2021/01/16 17:03:03;;;;;;;18.60;13.73;;;0.90;99.90;;;;;;4966509;28;20206;-78
2021/01/16 17:05:29;;;;;;;17.42;13.15;;;0.90;99.90;;;;;;4985951;28;20170;-77
2021/01/16 17:07:57;;;;;;;19.52;13.75;;;0.90;99.90;;;;;;4967488;28;20253;-78
2021/01/16 17:10:25;;;;;;;20.88;14.85;;;0.90;99.90;;;;;;4975191;28;20217;-79